Ithaca Tompkins Regional Airport Ithaca US
ICAO: KITH
IATA: ITH
Category: Medium
Scheduled Services: Yes

Elevation: 1099 ft
TransAlt. 18000 ft.

Airport Communications:
ELMIRA APP/DEP:124.3
ASOS:125.175
ATIS:125.175
CTAF:119.6
GND:121.8
BUFFALO RDO:111.8
TWR:119.6
UNICOM:122.95

KITH Zoom In..

Runways:

(A) RW 14 length 6977 ft width 150 ft
---- / hdg 145

(B) RW 15 length 2018 ft width 50 ft
---- / hdg 144

(C) RW 32 length 6977 ft width 150 ft
ILS 108.70 / hdg 325

(D) RW 33 length 2018 ft width 50 ft
---- / hdg 324

Location; KITH
Day. 20 / Time. 09.56 Zulu
* Altimeter: 30.16
* Temperature: -02° c. -28.4°f.
* Wind from: 300° Speed 09 kn.
Dewpoint: -06° c.
Visibility: 10 Statute Miles.
Clouds: Broken 2700 ft.

KITH 200956Z AUTO 30009KT 10SM BKN027 M02/M06 A3016 RMK AO2 SLP227 T10221056


Wind From 300°
Speed 09 kn.

  YouTube Music Video
 
jpsmedia.com for Web Design  worldairports.se 2018   terms of use